OIIE/IKA METAR and TAF weather

Enter ICAO airport designator
Station Type Date Time Source
OIIE METAR 2018/12/10 02:00 UTC NOAA

OIIE 100200Z 26008KT 9999 FEW100 06/03 Q1018


Station Type Date Time Source
OIIE Decoded METAR 2018/12/10 02:00 UTC NOAA

Station name not available
Dec 09, 2018 - 09:00 PM EST / 2018.12.10 0200 UTC
Wind: from the W (260 degrees) at 9 MPH (8 KT):0
Visibility: greater than 7 mile(s):0
Sky conditions: mostly clear
Temperature: 42 F (6 C)
Dew Point: 37 F (3 C)
Relative Humidity: 81%
Pressure (altimeter): 30.06 in. Hg (1018 hPa)
ob: OIIE 100200Z 26008KT 9999 FEW100 06/03 Q1018
cycle: 2

Station Type Date Time Source
OIIE TAF 2018/12/10 00:00 UTC NOAA

TAF OIIE 092300Z 1000/1106 25004MPS 8000 NSC
TEMPO 1012/1016 32008MPS 7000 FEW035TCU SCT040 BKN100


Example: see airport list